Time;durP1;ratioP1;P1;durP2;ratioP2;P2;SDS_P1;SDS_P2;PMS_P1;PMS_P2;Temp;Humidity;BMP_temperature;BMP_pressure;BME280_temperature;BME280_humidity;BME280_pressure;Samples;Min_cycle;Max_cycle;Signal;HPM_P1;HPM_P2
2024/01/21 00:01:23;;;;;;;10.50;6.47;;;0.60;99.90;;;;;;5084469;28;20040;-65
2024/01/21 00:03:49;;;;;;;11.35;6.60;;;0.60;99.90;;;;;;5085229;28;20481;-64
2024/01/21 00:06:15;;;;;;;8.82;6.07;;;0.50;99.90;;;;;;5092074;28;20063;-65
2024/01/21 00:08:41;;;;;;;13.48;5.68;;;0.50;99.90;;;;;;5091178;28;20547;-65
2024/01/21 00:11:07;;;;;;;9.52;6.75;;;0.50;99.90;;;;;;5087886;28;20040;-65
2024/01/21 00:13:34;;;;;;;8.55;6.70;;;0.50;99.90;;;;;;5091380;28;20047;-66
2024/01/21 00:15:59;;;;;;;10.13;7.47;;;0.50;99.90;;;;;;5090154;28;20504;-65
2024/01/21 00:18:25;;;;;;;12.50;6.45;;;0.50;99.90;;;;;;5081925;28;20115;-65
2024/01/21 00:20:51;;;;;;;8.70;5.95;;;0.50;99.90;;;;;;5082945;28;20040;-65
2024/01/21 00:23:17;;;;;;;10.73;6.38;;;0.40;99.90;;;;;;5085753;28;20035;-65
2024/01/21 00:25:42;;;;;;;10.27;6.88;;;0.50;99.90;;;;;;5090370;28;20102;-65
2024/01/21 00:28:08;;;;;;;9.25;6.20;;;0.50;99.90;;;;;;5087410;28;20505;-65
2024/01/21 00:30:33;;;;;;;11.30;6.22;;;0.50;99.90;;;;;;5068191;28;20122;-65
2024/01/21 00:32:59;;;;;;;8.40;6.00;;;0.50;99.90;;;;;;5085411;28;20123;-65
2024/01/21 00:35:24;;;;;;;10.77;6.85;;;0.50;99.90;;;;;;5088034;28;20382;-66
2024/01/21 00:37:50;;;;;;;12.70;6.78;;;0.50;99.90;;;;;;5085671;28;20160;-65
2024/01/21 00:40:16;;;;;;;8.93;6.78;;;0.50;99.90;;;;;;5110185;27;20679;-65
2024/01/21 00:42:42;;;;;;;10.98;7.10;;;0.50;99.90;;;;;;5087076;28;20052;-65
2024/01/21 00:45:08;;;;;;;15.40;8.10;;;0.50;99.90;;;;;;5085225;28;20112;-65
2024/01/21 00:47:33;;;;;;;10.45;6.93;;;0.50;99.90;;;;;;5087490;28;20039;-65
2024/01/21 00:49:59;;;;;;;9.02;6.10;;;0.40;99.90;;;;;;5081605;28;20036;-65
2024/01/21 00:52:25;;;;;;;10.93;7.80;;;0.40;99.90;;;;;;5085256;28;20036;-65
2024/01/21 00:54:52;;;;;;;10.57;6.70;;;0.40;99.90;;;;;;5086521;28;20043;-65
2024/01/21 00:57:19;;;;;;;9.88;6.72;;;0.40;99.90;;;;;;5087385;28;20075;-65
2024/01/21 00:59:44;;;;;;;8.68;6.25;;;0.40;99.90;;;;;;5084900;28;20040;-65
2024/01/21 01:02:10;;;;;;;11.50;7.05;;;0.40;99.90;;;;;;5116908;27;20108;-65
2024/01/21 01:04:36;;;;;;;8.90;5.95;;;0.50;99.90;;;;;;5087346;28;20486;-65
2024/01/21 01:07:01;;;;;;;9.50;6.32;;;0.50;99.90;;;;;;5080844;28;20040;-65
2024/01/21 01:09:27;;;;;;;8.80;5.65;;;0.40;99.90;;;;;;5084246;28;20173;-65
2024/01/21 01:11:53;;;;;;;8.73;6.05;;;0.50;99.90;;;;;;5084816;28;20036;-65
2024/01/21 01:14:18;;;;;;;7.53;5.88;;;0.50;99.90;;;;;;5085106;28;20043;-65
2024/01/21 01:16:44;;;;;;;7.55;5.55;;;0.60;99.90;;;;;;5086383;28;20044;-65
2024/01/21 01:19:09;;;;;;;14.60;6.38;;;0.50;99.90;;;;;;5084244;28;20067;-65
2024/01/21 01:21:35;;;;;;;8.32;6.25;;;0.60;99.90;;;;;;5084851;28;20032;-65
2024/01/21 01:24:01;;;;;;;9.25;6.30;;;0.50;99.90;;;;;;5082632;28;20045;-65
2024/01/21 01:26:26;;;;;;;8.48;6.47;;;0.60;99.90;;;;;;5085559;28;20032;-63
2024/01/21 01:28:52;;;;;;;7.80;5.70;;;0.60;99.90;;;;;;5082982;28;20035;-65
2024/01/21 01:31:18;;;;;;;8.60;5.40;;;0.60;99.90;;;;;;5084217;28;20123;-65
2024/01/21 01:33:44;;;;;;;8.05;5.47;;;0.60;99.90;;;;;;5081683;28;20048;-65
2024/01/21 01:36:10;;;;;;;8.70;5.70;;;0.60;99.90;;;;;;5082427;28;20044;-66
2024/01/21 01:38:36;;;;;;;8.80;5.97;;;0.60;99.90;;;;;;5087258;28;20040;-65
2024/01/21 01:41:02;;;;;;;8.55;5.45;;;0.60;99.90;;;;;;5080604;28;20042;-65
2024/01/21 01:43:27;;;;;;;7.40;5.18;;;0.70;99.90;;;;;;5119265;27;20036;-65
2024/01/21 01:45:53;;;;;;;7.07;5.45;;;0.60;99.90;;;;;;5086106;28;20478;-65
2024/01/21 01:48:22;;;;;;;9.77;6.10;;;0.70;99.90;;;;;;5086760;28;20036;-65
2024/01/21 01:50:48;;;;;;;8.68;5.55;;;0.70;99.90;;;;;;5113054;27;20033;-65
2024/01/21 01:53:15;;;;;;;8.07;5.57;;;0.70;99.90;;;;;;5087690;28;20071;-65
2024/01/21 01:55:42;;;;;;;6.38;4.78;;;0.70;99.90;;;;;;5086626;28;20039;-65
2024/01/21 01:58:08;;;;;;;11.30;5.47;;;0.70;99.90;;;;;;5084066;28;20040;-65
2024/01/21 02:00:34;;;;;;;7.78;5.05;;;0.70;99.90;;;;;;5086767;28;20517;-65
2024/01/21 02:02:59;;;;;;;7.25;4.32;;;0.70;99.90;;;;;;5087933;28;20032;-65
2024/01/21 02:05:25;;;;;;;9.68;5.18;;;0.80;99.90;;;;;;5085017;28;20062;-65
2024/01/21 02:07:51;;;;;;;9.27;4.60;;;0.80;99.90;;;;;;5117325;27;20109;-65
2024/01/21 02:10:16;;;;;;;7.07;4.82;;;0.80;99.90;;;;;;5083415;28;20063;-65
2024/01/21 02:12:45;;;;;;;9.05;4.90;;;0.80;99.90;;;;;;5083062;28;20048;-64
2024/01/21 02:15:14;;;;;;;10.15;4.07;;;0.90;99.90;;;;;;5090557;28;20058;-65
2024/01/21 02:17:40;;;;;;;6.78;4.13;;;0.90;99.90;;;;;;5084231;28;20068;-65
2024/01/21 02:20:07;;;;;;;6.70;4.32;;;0.90;99.90;;;;;;5089563;28;20040;-65
2024/01/21 02:22:36;;;;;;;6.07;3.78;;;0.90;99.90;;;;;;5088393;28;20116;-65
2024/01/21 02:25:02;;;;;;;7.55;4.03;;;0.90;99.90;;;;;;5087395;28;20045;-65
2024/01/21 02:27:28;;;;;;;7.78;4.80;;;0.90;99.90;;;;;;5091344;28;20029;-65
2024/01/21 02:29:53;;;;;;;5.75;3.45;;;0.90;99.90;;;;;;5087033;28;20071;-65
2024/01/21 02:32:19;;;;;;;6.00;3.15;;;0.90;99.90;;;;;;5089404;28;20047;-65
2024/01/21 02:34:45;;;;;;;6.68;3.25;;;0.90;99.90;;;;;;5090285;28;21093;-65
2024/01/21 02:37:11;;;;;;;5.72;3.33;;;1.00;99.90;;;;;;5086413;28;20079;-65
2024/01/21 02:39:36;;;;;;;5.05;3.70;;;1.00;99.90;;;;;;5119040;27;20137;-65
2024/01/21 02:42:02;;;;;;;8.13;3.60;;;1.00;99.90;;;;;;5086272;28;20052;-65
2024/01/21 02:44:28;;;;;;;3.92;2.78;;;1.00;99.90;;;;;;5093420;28;20393;-65
2024/01/21 02:46:54;;;;;;;5.63;3.08;;;1.00;99.90;;;;;;5088950;28;20032;-65
2024/01/21 02:49:21;;;;;;;3.58;2.58;;;1.00;99.90;;;;;;5117243;27;20039;-65
2024/01/21 02:51:46;;;;;;;4.03;2.60;;;1.00;99.90;;;;;;5085191;28;20041;-65
2024/01/21 02:54:12;;;;;;;5.50;2.85;;;1.10;99.90;;;;;;5089889;28;20097;-65
2024/01/21 02:56:38;;;;;;;6.15;3.22;;;1.00;99.90;;;;;;5088884;28;20042;-65
2024/01/21 02:59:04;;;;;;;5.03;2.47;;;1.10;99.90;;;;;;5086212;28;20051;-65
2024/01/21 03:01:29;;;;;;;5.30;2.42;;;1.10;99.90;;;;;;5087928;28;20040;-65
2024/01/21 03:03:55;;;;;;;2.75;2.42;;;1.10;99.90;;;;;;5087287;28;20979;-65
2024/01/21 03:06:21;;;;;;;7.93;2.78;;;1.10;99.90;;;;;;5092019;28;20071;-65
2024/01/21 03:08:46;;;;;;;4.05;2.45;;;1.10;99.90;;;;;;5119982;27;20041;-65
2024/01/21 03:11:12;;;;;;;4.18;2.42;;;1.10;99.90;;;;;;5120916;27;20036;-65
2024/01/21 03:13:38;;;;;;;5.82;2.78;;;1.10;99.90;;;;;;5087908;28;20102;-65
2024/01/21 03:16:03;;;;;;;4.40;2.42;;;1.10;99.90;;;;;;5084661;28;20047;-65
2024/01/21 03:18:29;;;;;;;4.68;2.40;;;1.10;99.90;;;;;;5086649;28;20641;-65
2024/01/21 03:20:54;;;;;;;4.88;3.10;;;1.10;99.90;;;;;;5118830;27;20032;-65
2024/01/21 03:23:20;;;;;;;4.88;2.55;;;1.10;99.90;;;;;;5123711;27;20044;-65
2024/01/21 03:25:46;;;;;;;3.78;2.28;;;1.10;99.90;;;;;;5086050;28;20075;-66
2024/01/21 03:28:12;;;;;;;4.32;2.20;;;1.10;99.90;;;;;;5088070;28;20054;-65
2024/01/21 03:30:39;;;;;;;4.72;2.00;;;1.20;99.90;;;;;;5085750;28;20036;-65
2024/01/21 03:33:04;;;;;;;3.70;2.25;;;1.20;99.90;;;;;;5088437;28;20351;-65
2024/01/21 03:35:30;;;;;;;3.47;1.92;;;1.20;99.90;;;;;;5084092;28;20047;-65
2024/01/21 03:37:56;;;;;;;4.93;2.13;;;1.20;99.90;;;;;;5085533;28;20048;-65
2024/01/21 03:40:21;;;;;;;4.13;2.10;;;1.30;99.90;;;;;;5086644;28;20044;-64
2024/01/21 03:42:47;;;;;;;4.05;2.42;;;1.30;99.90;;;;;;5091328;28;20090;-65
2024/01/21 03:45:13;;;;;;;4.20;2.05;;;1.30;99.90;;;;;;5086088;28;20123;-65
2024/01/21 03:47:39;;;;;;;4.35;1.83;;;1.30;99.90;;;;;;5087111;28;20063;-65
2024/01/21 03:50:05;;;;;;;4.75;1.60;;;1.40;99.90;;;;;;5085637;28;20071;-65
2024/01/21 03:52:31;;;;;;;6.35;1.55;;;1.40;99.60;;;;;;5086073;28;20062;-65
2024/01/21 03:54:57;;;;;;;3.67;1.92;;;1.40;99.70;;;;;;5117024;27;20053;-65
2024/01/21 03:57:22;;;;;;;3.42;1.42;;;1.40;99.60;;;;;;5087814;28;20561;-65
2024/01/21 03:59:48;;;;;;;2.55;1.70;;;1.40;99.40;;;;;;5087743;28;20375;-65
2024/01/21 04:02:14;;;;;;;2.35;1.15;;;1.40;99.40;;;;;;5085733;28;20407;-65
2024/01/21 04:04:39;;;;;;;4.20;1.27;;;1.40;99.60;;;;;;5084163;28;20075;-65
2024/01/21 04:07:05;;;;;;;2.60;1.38;;;1.50;99.00;;;;;;5083626;28;20033;-65
2024/01/21 04:09:31;;;;;;;4.00;1.90;;;1.50;98.70;;;;;;5087108;28;20036;-65
2024/01/21 04:11:56;;;;;;;3.08;1.50;;;1.50;98.80;;;;;;5088164;28;20118;-65
2024/01/21 04:14:22;;;;;;;5.97;1.90;;;1.50;98.40;;;;;;5088164;28;20043;-65
2024/01/21 04:16:48;;;;;;;2.30;1.40;;;1.50;98.90;;;;;;5088044;28;20051;-65
2024/01/21 04:19:16;;;;;;;2.95;1.52;;;1.50;99.00;;;;;;5084268;28;20055;-65
2024/01/21 04:21:42;;;;;;;3.05;1.48;;;1.50;98.80;;;;;;5090670;28;20047;-66
2024/01/21 04:24:08;;;;;;;3.55;1.73;;;1.40;99.20;;;;;;5116467;27;20058;-65
2024/01/21 04:26:33;;;;;;;4.35;2.03;;;1.40;98.60;;;;;;5087423;28;20031;-65
2024/01/21 04:28:59;;;;;;;3.65;1.42;;;1.40;98.70;;;;;;5085984;28;20077;-66
2024/01/21 04:31:25;;;;;;;4.40;1.10;;;1.40;99.20;;;;;;5080230;28;20135;-65
2024/01/21 04:33:50;;;;;;;3.85;1.27;;;1.40;98.60;;;;;;5084368;28;20037;-65
2024/01/21 04:36:20;;;;;;;3.17;1.58;;;1.40;99.20;;;;;;5087318;28;20475;-65
2024/01/21 04:38:46;;;;;;;3.13;1.50;;;1.40;99.20;;;;;;5089469;28;20035;-65
2024/01/21 04:41:13;;;;;;;4.38;1.20;;;1.30;99.30;;;;;;5087645;28;20429;-65
2024/01/21 04:43:39;;;;;;;2.63;1.13;;;1.30;98.90;;;;;;5087565;28;20048;-65
2024/01/21 04:46:04;;;;;;;2.58;1.80;;;1.30;98.70;;;;;;5087011;28;20040;-65
2024/01/21 04:48:37;;;;;;;3.40;1.55;;;1.30;98.50;;;;;;5081227;28;20985;-66
2024/01/21 04:51:02;;;;;;;2.33;1.17;;;1.30;98.90;;;;;;5085802;28;20732;-65
2024/01/21 04:53:28;;;;;;;1.92;1.00;;;1.30;98.80;;;;;;5086092;28;20183;-65
2024/01/21 04:55:54;;;;;;;4.00;1.40;;;1.20;98.70;;;;;;5087133;28;20062;-66
2024/01/21 04:58:20;;;;;;;2.88;1.38;;;1.30;99.00;;;;;;5086372;28;20402;-66
2024/01/21 05:00:45;;;;;;;3.92;1.20;;;1.20;98.50;;;;;;5089227;28;20047;-65
2024/01/21 05:03:11;;;;;;;3.83;1.30;;;1.30;98.90;;;;;;5082013;28;20390;-65
2024/01/21 05:05:36;;;;;;;3.25;1.40;;;1.30;98.80;;;;;;5089897;28;20027;-65
2024/01/21 05:08:02;;;;;;;2.35;1.20;;;1.20;99.20;;;;;;5086244;28;20047;-65
2024/01/21 05:10:28;;;;;;;2.60;0.93;;;1.20;98.80;;;;;;5085324;28;20051;-66
2024/01/21 05:12:53;;;;;;;3.10;1.85;;;1.20;99.10;;;;;;5083434;28;20036;-65
2024/01/21 05:15:19;;;;;;;5.68;1.55;;;1.20;98.70;;;;;;5083399;28;20048;-65
2024/01/21 05:17:44;;;;;;;3.70;1.35;;;1.20;98.50;;;;;;5071907;28;20044;-65
2024/01/21 05:20:11;;;;;;;7.75;2.40;;;1.20;98.20;;;;;;5083390;28;20590;-65
2024/01/21 05:22:37;;;;;;;3.08;1.67;;;1.20;98.50;;;;;;5086030;28;20032;-65
2024/01/21 05:25:03;;;;;;;2.65;0.98;;;1.20;98.50;;;;;;5082350;28;20410;-65
2024/01/21 05:27:29;;;;;;;6.18;1.60;;;1.20;98.30;;;;;;5085021;28;20044;-65
2024/01/21 05:29:55;;;;;;;2.42;1.42;;;1.20;98.80;;;;;;5086662;28;20043;-65
2024/01/21 05:32:21;;;;;;;2.25;1.20;;;1.20;98.90;;;;;;5083778;28;20035;-65
2024/01/21 05:34:46;;;;;;;4.95;1.40;;;1.30;98.80;;;;;;5082513;28;20044;-65
2024/01/21 05:37:12;;;;;;;2.45;1.35;;;1.30;98.60;;;;;;5083743;28;20058;-66
2024/01/21 05:39:37;;;;;;;2.83;1.80;;;1.30;98.50;;;;;;5086556;28;20032;-65
2024/01/21 05:42:10;;;;;;;2.33;1.35;;;1.40;98.70;;;;;;5084552;28;20072;-66
2024/01/21 05:44:35;;;;;;;3.08;1.60;;;1.40;98.10;;;;;;5115361;27;20101;-65
2024/01/21 05:47:01;;;;;;;2.83;1.50;;;1.50;98.40;;;;;;5084905;28;20623;-66
2024/01/21 05:49:27;;;;;;;2.95;1.40;;;1.50;98.20;;;;;;5085171;28;20088;-66
2024/01/21 05:51:52;;;;;;;5.43;1.60;;;1.50;98.20;;;;;;5089281;28;20036;-66
2024/01/21 05:54:18;;;;;;;3.47;2.00;;;1.60;98.10;;;;;;5090126;28;20127;-65
2024/01/21 05:56:44;;;;;;;4.65;1.95;;;1.70;97.30;;;;;;5090842;28;20397;-65
2024/01/21 05:59:12;;;;;;;32.40;2.65;;;1.70;97.80;;;;;;5087757;28;20036;-65
2024/01/21 06:01:39;;;;;;;8.95;2.50;;;1.80;97.90;;;;;;5120504;27;20072;-65
2024/01/21 06:04:05;;;;;;;3.35;2.10;;;1.80;97.70;;;;;;5117265;27;20043;-65
2024/01/21 06:06:30;;;;;;;3.70;2.40;;;1.90;97.60;;;;;;5091984;28;20073;-65
2024/01/21 06:08:56;;;;;;;5.00;2.05;;;1.90;97.00;;;;;;5084112;28;20051;-65
2024/01/21 06:11:21;;;;;;;4.00;2.20;;;1.90;96.80;;;;;;5087077;28;20475;-65
2024/01/21 06:13:47;;;;;;;5.40;2.50;;;1.90;97.30;;;;;;5093099;28;20063;-66
2024/01/21 06:16:16;;;;;;;6.30;2.70;;;1.90;97.10;;;;;;5086252;28;20482;-66
2024/01/21 06:18:43;;;;;;;4.00;2.10;;;1.90;97.80;;;;;;5090378;28;20075;-65
2024/01/21 06:21:09;;;;;;;8.23;2.80;;;2.00;98.10;;;;;;5085179;28;20063;-65
2024/01/21 06:23:35;;;;;;;5.35;2.75;;;1.90;97.90;;;;;;5088026;28;20048;-65
2024/01/21 06:26:00;;;;;;;20.92;3.25;;;1.90;98.20;;;;;;5089938;28;20136;-65
2024/01/21 06:28:26;;;;;;;10.20;2.65;;;1.90;98.10;;;;;;5085189;28;20042;-65
2024/01/21 06:30:52;;;;;;;3.38;2.28;;;1.90;98.40;;;;;;5095637;27;20039;-66
2024/01/21 06:33:19;;;;;;;4.53;2.72;;;1.80;98.70;;;;;;5086756;28;20132;-65
2024/01/21 06:35:45;;;;;;;4.90;2.30;;;1.90;98.60;;;;;;5087011;28;20051;-66
2024/01/21 06:38:10;;;;;;;4.55;2.50;;;1.90;98.50;;;;;;5092631;28;20035;-65
2024/01/21 06:40:36;;;;;;;5.10;2.75;;;1.80;98.20;;;;;;5088978;28;20833;-65
2024/01/21 06:43:02;;;;;;;3.38;2.28;;;2.10;98.30;;;;;;5115652;27;20083;-65
2024/01/21 06:45:28;;;;;;;7.60;3.83;;;1.80;98.10;;;;;;5117874;27;20044;-65
2024/01/21 06:47:53;;;;;;;6.70;2.92;;;1.90;98.10;;;;;;5089571;28;20039;-65
2024/01/21 06:50:19;;;;;;;7.22;3.42;;;1.80;98.40;;;;;;5060495;28;20402;-65
2024/01/21 06:52:44;;;;;;;8.60;3.05;;;1.90;98.70;;;;;;5079654;28;20163;-65
2024/01/21 06:55:10;;;;;;;6.47;2.80;;;1.80;98.70;;;;;;5083846;28;20066;-65
2024/01/21 06:57:36;;;;;;;5.63;3.53;;;1.70;99.00;;;;;;5065451;28;20486;-66
2024/01/21 07:00:05;;;;;;;3.22;2.58;;;1.80;98.80;;;;;;5076784;28;20043;-65
2024/01/21 07:02:32;;;;;;;4.70;3.45;;;1.70;98.80;;;;;;5060881;28;20079;-65
2024/01/21 07:04:58;;;;;;;6.53;3.08;;;1.80;98.70;;;;;;5078312;28;20139;-65
2024/01/21 07:07:23;;;;;;;16.27;4.22;;;1.80;98.60;;;;;;5078368;28;20133;-65
2024/01/21 07:09:49;;;;;;;4.13;3.00;;;1.80;99.00;;;;;;5079191;28;20502;-65
2024/01/21 07:12:15;;;;;;;7.15;3.20;;;1.70;99.50;;;;;;5086097;28;20039;-65
2024/01/21 07:14:41;;;;;;;5.28;3.00;;;1.80;99.10;;;;;;5079875;28;20040;-65
2024/01/21 07:17:06;;;;;;;8.00;3.10;;;1.80;99.10;;;;;;5083139;28;20497;-65
2024/01/21 07:19:32;;;;;;;4.93;2.78;;;1.80;98.80;;;;;;5091954;28;20375;-65
2024/01/21 07:21:58;;;;;;;4.85;3.28;;;1.80;99.00;;;;;;5100955;27;20048;-65
2024/01/21 07:24:24;;;;;;;10.40;3.17;;;1.80;99.30;;;;;;5088552;28;20050;-66
2024/01/21 07:26:50;;;;;;;5.53;2.83;;;1.80;99.20;;;;;;5085090;28;20070;-65
2024/01/21 07:29:19;;;;;;;15.38;3.60;;;1.80;99.20;;;;;;5067322;28;20036;-65
2024/01/21 07:31:44;;;;;;;5.43;2.80;;;1.80;99.30;;;;;;5083046;28;20066;-65
2024/01/21 07:34:10;;;;;;;5.15;3.05;;;1.80;99.50;;;;;;5078859;28;20176;-65
2024/01/21 07:36:36;;;;;;;6.15;3.30;;;1.80;99.70;;;;;;5079777;28;20155;-65
2024/01/21 07:39:04;;;;;;;10.85;3.55;;;1.80;99.70;;;;;;5078830;28;20643;-65
2024/01/21 07:41:30;;;;;;;6.05;3.53;;;1.80;99.40;;;;;;5093840;28;20068;-65
2024/01/21 07:43:56;;;;;;;4.53;2.67;;;1.80;99.50;;;;;;5083163;28;20039;-65
2024/01/21 07:46:22;;;;;;;3.78;2.70;;;1.80;99.50;;;;;;5095537;28;20470;-65
2024/01/21 07:48:48;;;;;;;4.38;2.90;;;1.80;99.60;;;;;;5077893;28;20099;-65
2024/01/21 07:51:16;;;;;;;5.13;3.08;;;1.80;99.80;;;;;;5080397;28;20060;-65
2024/01/21 07:53:41;;;;;;;5.13;3.15;;;1.80;99.90;;;;;;5077690;28;20040;-65
2024/01/21 07:56:07;;;;;;;6.82;4.22;;;1.80;99.80;;;;;;5077175;28;20081;-65
2024/01/21 07:58:32;;;;;;;5.65;3.47;;;1.80;99.50;;;;;;5080094;28;20089;-65
2024/01/21 08:00:58;;;;;;;5.35;2.83;;;1.80;99.80;;;;;;5092719;28;20447;-65
2024/01/21 08:03:24;;;;;;;3.97;2.58;;;1.80;99.90;;;;;;5077535;28;21702;-66
2024/01/21 08:05:49;;;;;;;8.52;3.10;;;1.90;99.90;;;;;;5077195;28;20043;-65
2024/01/21 08:08:15;;;;;;;5.75;3.58;;;1.90;99.90;;;;;;5078233;28;20503;-65
2024/01/21 08:10:40;;;;;;;4.72;3.08;;;1.90;99.90;;;;;;5061436;28;20101;-65
2024/01/21 08:13:06;;;;;;;5.35;3.33;;;1.90;99.90;;;;;;5080129;28;20509;-65
2024/01/21 08:15:32;;;;;;;4.38;2.92;;;1.80;99.90;;;;;;5083907;28;20043;-65
2024/01/21 08:17:59;;;;;;;5.55;3.20;;;1.80;99.90;;;;;;5085326;28;20044;-65
2024/01/21 08:20:24;;;;;;;9.30;3.15;;;1.80;99.90;;;;;;5084495;28;20367;-65
2024/01/21 08:22:50;;;;;;;4.90;3.33;;;1.90;99.90;;;;;;5088056;28;20047;-65
2024/01/21 08:25:16;;;;;;;3.70;2.90;;;1.90;99.90;;;;;;5089507;28;20132;-65
2024/01/21 08:27:41;;;;;;;4.20;2.80;;;1.90;99.90;;;;;;5088315;28;20533;-65
2024/01/21 08:30:08;;;;;;;4.57;2.92;;;1.90;99.90;;;;;;5087984;28;20506;-65
2024/01/21 08:32:34;;;;;;;4.70;3.05;;;2.00;99.90;;;;;;5105047;27;20036;-65
2024/01/21 08:35:00;;;;;;;4.68;3.33;;;2.00;99.90;;;;;;5085289;28;20036;-65
2024/01/21 08:37:26;;;;;;;6.78;3.58;;;2.00;99.90;;;;;;5115989;27;20047;-65
2024/01/21 08:39:51;;;;;;;3.97;3.10;;;2.00;99.90;;;;;;5085285;28;20055;-65
2024/01/21 08:42:19;;;;;;;4.50;3.25;;;2.00;99.90;;;;;;5082697;28;20039;-65
2024/01/21 08:44:45;;;;;;;4.55;3.03;;;2.10;99.90;;;;;;5118216;27;20050;-65
2024/01/21 08:47:10;;;;;;;5.10;3.15;;;2.00;99.90;;;;;;5089436;28;20039;-64
2024/01/21 08:49:36;;;;;;;4.38;3.25;;;2.10;99.90;;;;;;5082858;28;20036;-65
2024/01/21 08:52:02;;;;;;;4.70;2.80;;;2.10;99.90;;;;;;5080320;28;20036;-65
2024/01/21 08:54:27;;;;;;;5.50;3.30;;;2.10;99.90;;;;;;5084240;28;20058;-65
2024/01/21 08:56:53;;;;;;;4.38;3.20;;;2.10;99.90;;;;;;5083410;28;20044;-65
2024/01/21 08:59:19;;;;;;;4.78;2.78;;;2.30;99.90;;;;;;5117966;27;20162;-65
2024/01/21 09:01:45;;;;;;;5.78;3.50;;;2.30;99.90;;;;;;5082323;28;20135;-65
2024/01/21 09:04:11;;;;;;;4.75;3.38;;;2.30;99.90;;;;;;5085110;28;20050;-65
2024/01/21 09:06:41;;;;;;;4.20;3.20;;;2.40;99.90;;;;;;5090131;28;20093;-65
2024/01/21 09:09:11;;;;;;;5.03;3.53;;;2.40;99.90;;;;;;5082168;28;20128;-65
2024/01/21 09:11:38;;;;;;;5.38;3.13;;;2.40;99.90;;;;;;5080817;28;20568;-65
2024/01/21 09:14:03;;;;;;;7.78;3.35;;;2.50;99.90;;;;;;5083578;28;20091;-65
2024/01/21 09:16:29;;;;;;;6.50;4.22;;;2.50;99.90;;;;;;5081582;28;20486;-65
2024/01/21 09:18:55;;;;;;;5.43;3.40;;;2.50;99.90;;;;;;5084701;28;20044;-65
2024/01/21 09:21:21;;;;;;;5.53;3.33;;;2.50;99.90;;;;;;5084090;28;20077;-65
2024/01/21 09:23:47;;;;;;;7.07;3.25;;;2.50;99.90;;;;;;5088452;28;20040;-65
2024/01/21 09:26:12;;;;;;;6.70;4.00;;;2.50;99.90;;;;;;5087642;28;20042;-65
2024/01/21 09:28:38;;;;;;;7.50;3.97;;;2.50;99.90;;;;;;5087767;28;20032;-65
2024/01/21 09:31:04;;;;;;;4.88;3.65;;;2.60;99.90;;;;;;5086783;28;20040;-65
2024/01/21 09:33:29;;;;;;;5.10;3.67;;;2.50;99.90;;;;;;5089751;28;20035;-65
2024/01/21 09:35:55;;;;;;;5.28;3.90;;;2.60;99.90;;;;;;5085968;28;20032;-65
2024/01/21 09:38:21;;;;;;;7.15;3.50;;;2.60;99.90;;;;;;5089133;28;20075;-65
2024/01/21 09:41:19;;;;;;;5.75;3.60;;;2.70;99.90;;;;;;5084140;28;20457;-66
2024/01/21 09:43:44;;;;;;;5.13;3.92;;;2.70;99.90;;;;;;5090960;28;20463;-65
2024/01/21 09:46:12;;;;;;;7.40;3.92;;;2.80;99.90;;;;;;5091740;28;20032;-65
2024/01/21 09:48:38;;;;;;;7.72;3.45;;;2.80;99.90;;;;;;5085948;28;20024;-64
2024/01/21 09:51:06;;;;;;;8.93;3.58;;;2.80;99.90;;;;;;5088916;28;20443;-65
2024/01/21 09:53:32;;;;;;;3.53;3.05;;;2.90;99.90;;;;;;5091027;28;20582;-65
2024/01/21 09:56:09;;;;;;;5.13;3.83;;;2.90;99.90;;;;;;5083885;28;20119;-66
2024/01/21 09:58:44;;;;;;;6.07;3.97;;;2.90;99.90;;;;;;5087131;28;20046;-65
2024/01/21 10:01:09;;;;;;;5.60;3.65;;;2.90;99.90;;;;;;5090180;28;20196;-65
2024/01/21 10:03:35;;;;;;;9.45;3.92;;;3.00;99.90;;;;;;5091932;28;20120;-65
2024/01/21 10:06:01;;;;;;;5.65;3.55;;;3.00;99.90;;;;;;5088928;28;20044;-65
2024/01/21 10:08:27;;;;;;;4.93;4.00;;;3.10;99.90;;;;;;5115862;27;20037;-65
2024/01/21 10:10:54;;;;;;;7.70;4.57;;;3.10;99.90;;;;;;5083635;28;20692;-65
2024/01/21 10:13:19;;;;;;;6.22;5.03;;;3.20;99.90;;;;;;5088418;28;20028;-65
2024/01/21 10:15:45;;;;;;;5.97;3.55;;;3.20;99.90;;;;;;5089499;28;20044;-65
2024/01/21 10:18:11;;;;;;;6.50;3.58;;;3.30;99.90;;;;;;5085111;28;20040;-65
2024/01/21 10:20:37;;;;;;;10.63;3.65;;;3.30;99.90;;;;;;5084139;28;20032;-66
2024/01/21 10:23:13;;;;;;;6.10;4.07;;;3.40;99.90;;;;;;5086024;28;20531;-65
2024/01/21 10:25:43;;;;;;;5.05;3.60;;;3.40;99.90;;;;;;5086366;28;20047;-65
2024/01/21 10:28:12;;;;;;;5.18;3.75;;;3.40;99.90;;;;;;5086772;28;20036;-65
2024/01/21 10:30:38;;;;;;;5.93;4.43;;;3.50;99.90;;;;;;5086438;28;20044;-65
2024/01/21 10:33:06;;;;;;;5.28;3.92;;;3.50;99.90;;;;;;5086090;28;20051;-65
2024/01/21 10:35:31;;;;;;;5.28;4.25;;;3.50;99.90;;;;;;5085121;28;20047;-65
2024/01/21 10:37:58;;;;;;;7.03;3.83;;;3.50;99.90;;;;;;5085140;28;20049;-65
2024/01/21 10:40:24;;;;;;;5.95;4.15;;;3.50;99.90;;;;;;5083323;28;20043;-65
2024/01/21 10:42:55;;;;;;;6.43;3.75;;;3.50;99.90;;;;;;5083413;28;20054;-65
2024/01/21 10:45:27;;;;;;;5.13;3.88;;;3.50;99.90;;;;;;5088634;28;20079;-65
2024/01/21 10:47:53;;;;;;;6.20;4.00;;;3.50;99.90;;;;;;5084817;28;20043;-65
2024/01/21 10:50:21;;;;;;;4.43;3.20;;;3.60;99.90;;;;;;5082970;28;20036;-65
2024/01/21 10:52:49;;;;;;;5.85;3.50;;;3.60;99.90;;;;;;5118432;27;20036;-65
2024/01/21 10:55:15;;;;;;;5.55;4.25;;;3.70;99.90;;;;;;5089182;28;20379;-65
2024/01/21 10:57:42;;;;;;;5.40;4.25;;;3.70;99.90;;;;;;5085842;28;20044;-65
2024/01/21 11:00:09;;;;;;;5.25;4.07;;;3.80;99.90;;;;;;5084234;28;20385;-66
2024/01/21 11:02:35;;;;;;;6.50;4.20;;;3.70;99.90;;;;;;5085831;28;20032;-65
2024/01/21 11:05:01;;;;;;;5.68;4.07;;;3.80;99.90;;;;;;5084038;28;20044;-63
2024/01/21 11:07:27;;;;;;;5.47;3.63;;;3.80;99.90;;;;;;5086130;28;20032;-65
2024/01/21 11:09:57;;;;;;;5.80;4.07;;;3.80;99.90;;;;;;5072076;28;20028;-65
2024/01/21 11:12:23;;;;;;;7.50;4.05;;;3.80;99.90;;;;;;5088661;28;20600;-65
2024/01/21 11:14:49;;;;;;;5.22;3.80;;;3.90;99.90;;;;;;5089240;28;20047;-65
2024/01/21 11:17:19;;;;;;;6.22;5.00;;;3.90;99.90;;;;;;5115141;27;20067;-65
2024/01/21 11:19:54;;;;;;;6.03;4.03;;;3.90;99.90;;;;;;5084492;28;20036;-66
2024/01/21 11:22:23;;;;;;;6.15;4.47;;;3.90;99.90;;;;;;5084062;28;20066;-65
2024/01/21 11:24:53;;;;;;;5.82;3.67;;;3.90;99.90;;;;;;5086978;28;20042;-65
2024/01/21 11:27:18;;;;;;;5.55;3.85;;;3.90;99.90;;;;;;5086357;28;20192;-65
2024/01/21 11:29:44;;;;;;;9.95;4.22;;;3.90;99.90;;;;;;5067505;28;20123;-65
2024/01/21 11:32:11;;;;;;;7.10;4.30;;;3.90;99.90;;;;;;5086361;28;20035;-65
2024/01/21 11:34:45;;;;;;;5.35;4.25;;;3.90;99.90;;;;;;5087179;28;20051;-65
2024/01/21 11:37:13;;;;;;;5.20;4.05;;;3.90;99.90;;;;;;5082297;28;20044;-65
2024/01/21 11:39:40;;;;;;;5.70;4.53;;;3.90;99.90;;;;;;5082476;28;20043;-65
2024/01/21 11:42:06;;;;;;;5.00;4.10;;;3.90;99.90;;;;;;5084513;28;20067;-65
2024/01/21 11:44:33;;;;;;;6.53;4.50;;;3.90;99.90;;;;;;5081868;27;21149;-65
2024/01/21 11:47:01;;;;;;;6.30;4.55;;;3.90;99.90;;;;;;5119877;27;20086;-65
2024/01/21 11:49:29;;;;;;;7.70;4.75;;;4.00;99.90;;;;;;5084714;28;20027;-64
2024/01/21 11:51:57;;;;;;;6.43;4.32;;;3.90;99.90;;;;;;5080546;28;20127;-65
2024/01/21 11:54:23;;;;;;;5.88;4.55;;;4.00;99.90;;;;;;5078790;28;20086;-65
2024/01/21 11:56:49;;;;;;;6.90;4.72;;;4.00;99.90;;;;;;5111025;27;20433;-64
2024/01/21 11:59:16;;;;;;;9.02;4.53;;;3.90;99.90;;;;;;5081394;28;20048;-64
2024/01/21 12:01:42;;;;;;;5.60;4.13;;;4.00;99.90;;;;;;5098879;27;20040;-65
2024/01/21 12:04:09;;;;;;;5.78;4.10;;;4.00;99.90;;;;;;5078536;28;20549;-65
2024/01/21 12:06:39;;;;;;;5.88;4.50;;;3.90;99.90;;;;;;5094479;27;20039;-65
2024/01/21 12:09:05;;;;;;;7.13;4.72;;;3.90;99.90;;;;;;5080235;28;20033;-65
2024/01/21 12:11:33;;;;;;;6.32;4.35;;;4.00;99.90;;;;;;5081406;28;20054;-65
2024/01/21 12:13:59;;;;;;;6.32;4.35;;;4.00;99.90;;;;;;5115191;27;20048;-65
2024/01/21 12:16:26;;;;;;;7.13;4.88;;;3.90;99.90;;;;;;5078776;28;20044;-65
2024/01/21 12:18:51;;;;;;;6.53;4.55;;;4.00;99.90;;;;;;5077343;28;20071;-65
2024/01/21 12:21:17;;;;;;;7.38;5.05;;;4.00;99.90;;;;;;5077623;28;21365;-65
2024/01/21 12:23:44;;;;;;;8.07;5.13;;;3.90;99.90;;;;;;5110587;27;20069;-65
2024/01/21 12:26:17;;;;;;;7.55;5.35;;;3.90;99.90;;;;;;5094138;27;20036;-65
2024/01/21 12:29:00;;;;;;;5.80;4.60;;;3.90;99.90;;;;;;5080448;28;20032;-65
2024/01/21 12:31:37;;;;;;;6.05;4.10;;;4.00;99.90;;;;;;5065848;28;20047;-65
2024/01/21 12:34:05;;;;;;;5.78;4.70;;;4.00;99.90;;;;;;5078818;28;20564;-65
2024/01/21 12:36:33;;;;;;;8.15;4.60;;;4.00;99.90;;;;;;5079293;28;20051;-65
2024/01/21 12:39:00;;;;;;;5.28;4.55;;;4.00;99.90;;;;;;5076964;28;20040;-65
2024/01/21 12:41:26;;;;;;;6.13;4.28;;;4.00;99.90;;;;;;5077714;28;20036;-65
2024/01/21 12:43:52;;;;;;;6.05;4.90;;;4.10;99.90;;;;;;5082451;28;20135;-65
2024/01/21 12:46:19;;;;;;;7.82;5.60;;;4.00;99.90;;;;;;5077480;28;20135;-65
2024/01/21 12:48:46;;;;;;;6.95;4.78;;;4.10;99.90;;;;;;5111289;27;20067;-65
2024/01/21 12:51:14;;;;;;;5.93;5.25;;;4.10;99.90;;;;;;5084967;28;20122;-65